createdAt,value
2022-11-29T00:01:56.144Z,2.06
2022-11-29T00:04:24.520Z,2.08
2022-11-29T00:06:52.849Z,2.08
2022-11-29T00:09:21.462Z,2.13
2022-11-29T00:12:07.496Z,2.18
2022-11-29T00:14:36.117Z,2.12
2022-11-29T00:17:06.485Z,2.09
2022-11-29T00:19:36.889Z,2.10
2022-11-29T00:22:05.832Z,2.11
2022-11-29T00:24:34.634Z,2.13
2022-11-29T00:27:03.592Z,2.11
2022-11-29T00:29:32.170Z,2.08
2022-11-29T00:32:01.168Z,2.15
2022-11-29T00:34:30.966Z,2.18
2022-11-29T00:36:59.728Z,2.11
2022-11-29T00:39:28.398Z,2.07
2022-11-29T00:41:57.170Z,2.10
2022-11-29T00:44:25.771Z,2.12
2022-11-29T00:46:54.136Z,2.07
2022-11-29T00:49:22.541Z,2.07
2022-11-29T00:51:52.291Z,2.15
2022-11-29T00:54:20.591Z,2.16
2022-11-29T00:56:49.215Z,2.11
2022-11-29T00:59:17.570Z,2.13
2022-11-29T01:01:46.391Z,2.11
2022-11-29T01:04:15.091Z,2.14
2022-11-29T01:06:43.506Z,2.11
2022-11-29T01:09:13.323Z,2.13
2022-11-29T01:11:41.739Z,2.09
2022-11-29T01:14:12.371Z,2.06
2022-11-29T01:16:40.756Z,2.12
2022-11-29T01:19:09.514Z,2.12
2022-11-29T01:21:37.881Z,2.09
2022-11-29T01:24:07.050Z,2.07
2022-11-29T01:26:36.987Z,2.10
2022-11-29T01:29:05.341Z,2.08
2022-11-29T01:31:36.511Z,2.00
2022-11-29T01:34:07.803Z,2.08
2022-11-29T01:36:37.048Z,2.09
2022-11-29T01:39:07.792Z,2.05
2022-11-29T01:41:38.833Z,2.08
2022-11-29T01:44:29.221Z,2.06
2022-11-29T01:46:58.928Z,2.08
2022-11-29T01:49:34.630Z,2.07
2022-11-29T01:52:07.710Z,2.09
2022-11-29T01:54:43.510Z,2.07
2022-11-29T01:57:15.460Z,2.07
2022-11-29T01:59:47.536Z,2.04
2022-11-29T02:02:19.468Z,2.06
2022-11-29T02:04:51.120Z,2.05
2022-11-29T02:07:20.944Z,2.09
2022-11-29T02:09:49.231Z,2.04
2022-11-29T02:12:31.145Z,2.04
2022-11-29T02:15:24.631Z,2.09
2022-11-29T02:18:07.869Z,2.06
2022-11-29T02:21:12.919Z,2.05
2022-11-29T02:24:16.208Z,2.09
2022-11-29T02:27:37.282Z,2.16
2022-11-29T02:30:20.735Z,2.12
2022-11-29T02:33:34.363Z,2.13
2022-11-29T02:36:24.734Z,2.08
2022-11-29T02:39:26.345Z,2.09
2022-11-29T02:42:55.797Z,2.06
2022-11-29T02:45:47.691Z,2.06
2022-11-29T02:49:02.259Z,2.00
2022-11-29T02:51:43.921Z,2.00
2022-11-29T02:54:24.961Z,2.01
2022-11-29T02:57:01.196Z,2.05
2022-11-29T02:59:48.058Z,2.01
2022-11-29T03:02:27.750Z,2.01
2022-11-29T03:05:13.952Z,1.97
2022-11-29T03:07:54.396Z,2.01
2022-11-29T03:10:36.144Z,2.05
2022-11-29T03:13:15.359Z,2.07
2022-11-29T03:15:56.465Z,2.07
2022-11-29T03:18:36.122Z,2.08
2022-11-29T03:21:24.606Z,2.12
2022-11-29T03:23:58.644Z,2.09
2022-11-29T03:26:36.553Z,2.10
2022-11-29T03:29:16.281Z,2.12
2022-11-29T03:31:53.188Z,2.11
2022-11-29T03:34:36.971Z,2.09
2022-11-29T03:37:15.791Z,2.10
2022-11-29T03:39:53.075Z,2.12
2022-11-29T03:42:30.471Z,2.10
2022-11-29T03:45:09.890Z,2.12
2022-11-29T03:47:49.885Z,2.10
2022-11-29T03:50:23.335Z,2.07
2022-11-29T03:53:01.072Z,2.09
2022-11-29T03:55:34.856Z,2.14
2022-11-29T03:58:26.298Z,2.09
2022-11-29T04:01:38.553Z,2.06
2022-11-29T04:05:23.032Z,2.06
2022-11-29T04:08:29.084Z,2.05
2022-11-29T04:11:29.642Z,2.04
2022-11-29T04:14:34.556Z,2.03
2022-11-29T04:17:34.094Z,2.05
2022-11-29T04:20:38.815Z,2.04
2022-11-29T04:23:47.707Z,2.00
2022-11-29T04:26:58.048Z,2.07
2022-11-29T04:29:51.040Z,2.02
2022-11-29T04:33:01.725Z,2.04
2022-11-29T04:35:52.670Z,2.07
2022-11-29T04:39:08.415Z,2.07
2022-11-29T04:42:21.268Z,2.05
2022-11-29T04:45:18.143Z,2.07
2022-11-29T04:48:03.037Z,2.09
2022-11-29T04:50:54.516Z,2.10
2022-11-29T04:53:34.923Z,2.09
2022-11-29T04:56:18.951Z,2.08
2022-11-29T04:59:00.236Z,2.07
2022-11-29T05:01:44.570Z,2.10
2022-11-29T05:04:22.788Z,2.08
2022-11-29T05:07:04.352Z,2.08
2022-11-29T05:09:45.541Z,2.07
2022-11-29T05:12:29.089Z,2.06
2022-11-29T05:15:33.740Z,2.10
2022-11-29T05:18:19.373Z,2.11
2022-11-29T05:21:01.401Z,2.13
2022-11-29T05:23:46.897Z,2.15
2022-11-29T05:26:24.514Z,2.17
2022-11-29T05:29:02.949Z,2.15
2022-11-29T05:31:57.755Z,2.14
2022-11-29T05:35:05.335Z,2.15
2022-11-29T05:37:45.445Z,2.13
2022-11-29T05:40:45.653Z,2.11
2022-11-29T05:43:33.647Z,2.11
2022-11-29T05:46:12.732Z,2.09
2022-11-29T05:48:55.370Z,2.13
2022-11-29T05:51:38.442Z,2.13
2022-11-29T05:54:21.112Z,2.11
2022-11-29T05:57:05.048Z,2.17
2022-11-29T05:59:39.444Z,2.18
2022-11-29T06:02:29.250Z,2.17
2022-11-29T06:05:11.690Z,2.19
2022-11-29T06:07:51.877Z,2.20
2022-11-29T06:10:26.380Z,2.18
2022-11-29T06:13:14.671Z,2.17
2022-11-29T06:16:23.675Z,2.19
2022-11-29T06:19:34.031Z,2.18
2022-11-29T06:22:28.951Z,2.20
2022-11-29T06:25:18.237Z,2.24
2022-11-29T06:28:10.851Z,2.20
2022-11-29T06:30:59.546Z,2.21
2022-11-29T06:33:39.817Z,2.19
2022-11-29T06:36:28.029Z,2.16
2022-11-29T06:38:58.385Z,2.16
2022-11-29T06:41:27.660Z,2.21
2022-11-29T06:43:57.111Z,2.20
2022-11-29T06:46:45.105Z,2.16
2022-11-29T06:49:23.543Z,2.16
2022-11-29T06:52:09.405Z,2.22
2022-11-29T06:55:04.455Z,2.20
2022-11-29T06:57:48.366Z,2.18
2022-11-29T07:00:21.674Z,2.18
2022-11-29T07:03:20.885Z,2.23
2022-11-29T07:05:50.360Z,2.20
2022-11-29T07:08:23.097Z,2.17
2022-11-29T07:10:55.740Z,2.16
2022-11-29T07:13:25.304Z,2.22
2022-11-29T07:16:04.655Z,2.26
2022-11-29T07:18:45.614Z,2.27
2022-11-29T07:21:29.364Z,2.27
2022-11-29T07:24:09.853Z,2.27
2022-11-29T07:26:56.486Z,2.25
2022-11-29T07:29:41.992Z,2.26
2022-11-29T07:32:23.511Z,2.25
2022-11-29T07:35:05.267Z,2.28
2022-11-29T07:37:46.326Z,2.26
2022-11-29T07:40:20.197Z,2.21
2022-11-29T07:43:19.470Z,2.27
2022-11-29T07:45:48.527Z,2.25
2022-11-29T07:48:18.758Z,2.28
2022-11-29T07:50:48.514Z,2.31
2022-11-29T07:53:19.667Z,2.32
2022-11-29T07:55:49.547Z,2.34
2022-11-29T07:58:20.570Z,2.34
2022-11-29T08:00:49.004Z,2.37
2022-11-29T08:03:17.330Z,2.39
2022-11-29T08:05:48.110Z,2.39
2022-11-29T08:08:17.356Z,2.43
2022-11-29T08:10:46.516Z,2.46
2022-11-29T08:13:15.453Z,2.49
2022-11-29T08:15:50.379Z,2.41
2022-11-29T08:18:19.373Z,2.41
2022-11-29T08:20:47.689Z,2.48
2022-11-29T08:23:17.052Z,2.51
2022-11-29T08:25:46.077Z,2.50
2022-11-29T08:28:15.159Z,2.51
2022-11-29T08:30:43.594Z,2.54
2022-11-29T08:33:13.254Z,2.58
2022-11-29T08:35:42.182Z,2.61
2022-11-29T08:38:10.514Z,2.63
2022-11-29T08:40:38.942Z,2.70
2022-11-29T08:43:07.201Z,2.70
2022-11-29T08:45:35.642Z,2.71
2022-11-29T08:48:04.660Z,2.69
2022-11-29T08:50:34.716Z,2.67
2022-11-29T08:53:20.716Z,2.68
2022-11-29T08:55:49.202Z,2.70
2022-11-29T08:58:18.318Z,2.82
2022-11-29T09:00:47.237Z,2.88
2022-11-29T09:03:33.662Z,2.88
2022-11-29T09:06:12.240Z,2.90
2022-11-29T09:08:43.517Z,2.91
2022-11-29T09:11:14.213Z,2.93
2022-11-29T09:13:44.334Z,2.96
2022-11-29T09:16:18.092Z,2.95
2022-11-29T09:18:51.962Z,3.00
2022-11-29T09:21:22.451Z,2.93
2022-11-29T09:23:57.746Z,3.02
2022-11-29T09:26:29.354Z,3.01
2022-11-29T09:29:01.363Z,3.00
2022-11-29T09:31:31.664Z,3.00
2022-11-29T09:34:00.466Z,3.01
2022-11-29T09:36:31.959Z,3.05
2022-11-29T09:39:03.644Z,3.04
2022-11-29T09:42:14.436Z,3.08
2022-11-29T09:45:02.437Z,3.05
2022-11-29T09:48:08.867Z,3.14
2022-11-29T09:50:43.176Z,3.15
2022-11-29T09:53:34.349Z,3.14
2022-11-29T09:56:19.681Z,3.12
2022-11-29T09:58:58.525Z,3.04
2022-11-29T10:01:33.258Z,3.11
2022-11-29T10:04:08.979Z,3.16
2022-11-29T10:06:45.117Z,3.22
2022-11-29T10:09:23.850Z,3.23
2022-11-29T10:12:04.868Z,3.22
2022-11-29T10:14:44.999Z,3.25
2022-11-29T10:17:27.271Z,3.30
2022-11-29T10:20:04.269Z,3.38
2022-11-29T10:22:44.859Z,3.40
2022-11-29T10:25:25.031Z,3.45
2022-11-29T10:27:55.028Z,3.47
2022-11-29T10:30:23.946Z,3.43
2022-11-29T10:33:01.422Z,3.39
2022-11-29T10:35:30.545Z,3.40
2022-11-29T10:38:29.898Z,3.44
2022-11-29T10:41:05.262Z,3.47
2022-11-29T10:43:34.138Z,3.50
2022-11-29T10:46:02.750Z,3.51
2022-11-29T10:48:35.319Z,3.42
2022-11-29T10:51:04.373Z,3.47
2022-11-29T10:53:37.936Z,3.49
2022-11-29T10:56:18.009Z,3.48
2022-11-29T10:58:58.497Z,3.41
2022-11-29T11:01:29.137Z,3.49
2022-11-29T11:04:00.143Z,3.52
2022-11-29T11:06:44.932Z,3.44
2022-11-29T11:09:21.908Z,3.42
2022-11-29T11:11:58.718Z,3.48
2022-11-29T11:14:30.672Z,3.55
2022-11-29T11:17:21.851Z,3.53
2022-11-29T11:19:59.242Z,3.48
2022-11-29T11:22:29.519Z,3.57
2022-11-29T11:25:01.948Z,3.55
2022-11-29T11:27:39.734Z,3.57
2022-11-29T11:30:23.992Z,3.53
2022-11-29T11:33:08.952Z,3.49
2022-11-29T11:35:54.058Z,3.60
2022-11-29T11:46:03.221Z,3.72
2022-11-29T11:48:35.023Z,3.75
2022-11-29T11:54:02.080Z,3.81
2022-11-29T11:56:36.957Z,3.79
2022-11-29T11:59:06.633Z,3.77
2022-11-29T12:01:41.060Z,3.80
2022-11-29T12:04:16.607Z,3.82
2022-11-29T12:06:52.337Z,3.81
2022-11-29T12:09:35.258Z,3.80
2022-11-29T12:12:16.895Z,3.77
2022-11-29T12:14:56.914Z,3.80
2022-11-29T12:17:38.072Z,3.75
2022-11-29T12:20:25.734Z,3.78
2022-11-29T12:23:20.750Z,3.78
2022-11-29T12:25:57.294Z,3.78
2022-11-29T12:28:32.922Z,3.83
2022-11-29T12:31:13.581Z,3.84
2022-11-29T12:33:54.088Z,3.87
2022-11-29T12:36:42.556Z,3.87
2022-11-29T12:39:45.651Z,3.98
2022-11-29T12:42:27.756Z,4.03
2022-11-29T12:45:05.399Z,4.08
2022-11-29T12:47:52.433Z,4.07
2022-11-29T12:50:51.411Z,4.02
2022-11-29T12:53:35.819Z,4.01
2022-11-29T12:56:16.137Z,4.04
2022-11-29T12:59:03.527Z,3.91
2022-11-29T13:01:51.346Z,3.88
2022-11-29T13:04:30.497Z,3.91
2022-11-29T13:07:13.078Z,3.91
2022-11-29T13:10:21.932Z,3.83
2022-11-29T13:12:55.251Z,3.76
2022-11-29T13:15:30.978Z,3.88
2022-11-29T13:18:08.956Z,3.92
2022-11-29T13:20:49.177Z,3.89
2022-11-29T13:23:46.123Z,3.91
2022-11-29T13:26:18.690Z,3.83
2022-11-29T13:28:47.775Z,3.81
2022-11-29T13:31:21.092Z,3.89
2022-11-29T13:34:02.344Z,3.82
2022-11-29T13:36:46.852Z,3.80
2022-11-29T13:39:44.281Z,3.75
2022-11-29T13:42:23.590Z,3.77
2022-11-29T13:45:05.108Z,3.77
2022-11-29T13:47:33.553Z,3.81
2022-11-29T13:50:04.155Z,3.81
2022-11-29T13:52:42.923Z,3.83
2022-11-29T13:55:31.282Z,3.80
2022-11-29T13:58:18.142Z,3.81
2022-11-29T14:00:53.278Z,3.75
2022-11-29T14:03:32.594Z,3.73
2022-11-29T14:06:15.310Z,3.67
2022-11-29T14:09:21.690Z,3.70
2022-11-29T14:12:02.835Z,3.65
2022-11-29T14:14:41.294Z,3.70
2022-11-29T14:17:49.534Z,3.66
2022-11-29T14:20:59.414Z,3.63
2022-11-29T14:23:41.655Z,3.57
2022-11-29T14:26:33.091Z,3.55
2022-11-29T14:29:38.383Z,3.55
2022-11-29T14:32:23.498Z,3.50
2022-11-29T14:35:00.710Z,3.45
2022-11-29T14:37:56.822Z,3.39
2022-11-29T14:40:35.460Z,3.39
2022-11-29T14:43:21.698Z,3.36
2022-11-29T14:46:26.100Z,3.32
2022-11-29T14:49:04.463Z,3.35
2022-11-29T14:51:35.495Z,3.33
2022-11-29T14:54:14.369Z,3.26
2022-11-29T14:56:45.486Z,3.25
2022-11-29T14:59:50.429Z,3.22
2022-11-29T15:02:35.132Z,3.18
2022-11-29T15:05:22.918Z,3.15
2022-11-29T15:08:02.860Z,3.17
2022-11-29T15:10:40.099Z,3.16
2022-11-29T15:13:15.116Z,3.11
2022-11-29T15:16:14.015Z,3.10
2022-11-29T15:19:13.646Z,3.11
2022-11-29T15:21:55.691Z,3.06
2022-11-29T15:24:28.265Z,3.06
2022-11-29T15:26:59.225Z,3.05
2022-11-29T15:29:32.664Z,3.04
2022-11-29T15:32:06.862Z,3.01
2022-11-29T15:34:45.291Z,2.99
2022-11-29T15:37:24.584Z,2.96
2022-11-29T15:40:04.482Z,2.94
2022-11-29T15:42:42.420Z,2.96
2022-11-29T15:45:32.825Z,2.93
2022-11-29T15:48:25.769Z,2.94
2022-11-29T15:51:10.230Z,2.94
2022-11-29T15:53:47.262Z,2.94
2022-11-29T15:56:20.727Z,2.93
2022-11-29T15:58:53.228Z,2.93
2022-11-29T16:01:23.061Z,2.90
2022-11-29T16:03:56.872Z,2.90
2022-11-29T16:06:35.994Z,2.92
2022-11-29T16:09:07.666Z,2.90
2022-11-29T16:11:39.145Z,2.89
2022-11-29T16:14:23.171Z,2.85
2022-11-29T16:16:55.504Z,2.82
2022-11-29T16:19:30.765Z,2.81
2022-11-29T16:22:24.933Z,2.78
2022-11-29T16:25:03.777Z,2.81
2022-11-29T16:27:34.905Z,2.83
2022-11-29T16:30:03.957Z,2.84
2022-11-29T16:32:35.708Z,2.83
2022-11-29T16:35:14.026Z,2.88
2022-11-29T16:37:46.890Z,2.85
2022-11-29T16:40:25.634Z,2.80
2022-11-29T16:43:20.421Z,2.73
2022-11-29T16:45:48.935Z,2.71
2022-11-29T16:48:31.785Z,2.67
2022-11-29T16:51:23.736Z,2.66
2022-11-29T16:53:55.876Z,2.65
2022-11-29T16:56:34.645Z,2.65
2022-11-29T16:59:24.597Z,2.66
2022-11-29T17:01:53.021Z,2.71
2022-11-29T17:04:24.848Z,2.74
2022-11-29T17:06:54.937Z,2.71
2022-11-29T17:09:27.838Z,2.73
2022-11-29T17:11:59.814Z,2.72
2022-11-29T17:14:29.458Z,2.72
2022-11-29T17:17:00.634Z,2.74
2022-11-29T17:19:31.992Z,2.72
2022-11-29T17:22:00.761Z,2.71
2022-11-29T17:24:32.110Z,2.72
2022-11-29T17:27:00.548Z,2.68
2022-11-29T17:29:29.046Z,2.66
2022-11-29T17:31:57.875Z,2.59
2022-11-29T17:34:27.728Z,2.56
2022-11-29T17:36:59.606Z,2.55
2022-11-29T17:39:32.231Z,2.52
2022-11-29T17:42:02.203Z,2.50
2022-11-29T17:44:35.891Z,2.44
2022-11-29T17:47:04.799Z,2.35
2022-11-29T17:49:33.631Z,2.30
2022-11-29T17:52:02.142Z,2.27
2022-11-29T17:54:33.202Z,2.20
2022-11-29T17:57:03.742Z,2.18
2022-11-29T17:59:32.111Z,2.15
2022-11-29T18:02:02.088Z,2.10
2022-11-29T18:04:30.525Z,2.01
2022-11-29T18:06:59.500Z,2.00
2022-11-29T18:09:28.253Z,1.90
2022-11-29T18:11:58.318Z,1.80
2022-11-29T18:14:28.448Z,1.70
2022-11-29T18:16:57.022Z,1.63
2022-11-29T18:19:25.436Z,1.60
2022-11-29T18:21:53.817Z,1.55
2022-11-29T18:24:22.144Z,1.56
2022-11-29T18:26:50.574Z,1.56
2022-11-29T18:29:20.599Z,1.61
2022-11-29T18:31:48.884Z,1.67
2022-11-29T18:34:17.332Z,1.72
2022-11-29T18:36:48.513Z,1.79
2022-11-29T18:39:19.188Z,1.89
2022-11-29T18:41:49.613Z,1.91
2022-11-29T18:44:21.969Z,1.94
2022-11-29T18:46:50.686Z,1.96
2022-11-29T18:49:19.685Z,2.00
2022-11-29T18:51:49.790Z,2.05
2022-11-29T18:54:19.915Z,2.10
2022-11-29T18:56:51.301Z,2.09
2022-11-29T18:59:23.015Z,2.11
2022-11-29T19:01:51.669Z,2.09
2022-11-29T19:04:24.089Z,2.10
2022-11-29T19:06:53.476Z,2.13
2022-11-29T19:09:23.964Z,2.14
2022-11-29T19:11:52.596Z,2.13
2022-11-29T19:14:23.214Z,2.13
2022-11-29T19:16:52.391Z,2.16
2022-11-29T19:19:23.931Z,2.19
2022-11-29T19:21:53.048Z,2.17
2022-11-29T19:24:22.729Z,2.22
2022-11-29T19:26:55.544Z,2.25
2022-11-29T19:29:28.568Z,2.31
2022-11-29T19:31:57.133Z,2.37
2022-11-29T19:34:26.490Z,2.40
2022-11-29T19:36:58.500Z,2.42
2022-11-29T19:39:31.332Z,2.44
2022-11-29T19:42:00.067Z,2.45
2022-11-29T19:44:35.905Z,2.45
2022-11-29T19:47:17.156Z,2.46
2022-11-29T19:49:46.849Z,2.45
2022-11-29T19:52:15.555Z,2.49
2022-11-29T19:54:44.168Z,2.51
2022-11-29T19:57:13.812Z,2.51
2022-11-29T19:59:44.265Z,2.52
2022-11-29T20:02:13.545Z,2.54
2022-11-29T20:04:45.731Z,2.55
2022-11-29T20:07:14.305Z,2.57
2022-11-29T20:09:43.531Z,2.58
2022-11-29T20:12:12.970Z,2.60
2022-11-29T20:14:41.441Z,2.55
2022-11-29T20:17:11.545Z,2.58
2022-11-29T20:19:40.139Z,2.54
2022-11-29T20:22:08.801Z,2.55
2022-11-29T20:24:42.632Z,2.56
2022-11-29T20:27:14.116Z,2.54
2022-11-29T20:29:42.672Z,2.54
2022-11-29T20:32:13.055Z,2.55
2022-11-29T20:34:42.669Z,2.53
2022-11-29T20:37:39.930Z,2.53
2022-11-29T20:40:19.092Z,2.53
2022-11-29T20:43:12.964Z,2.53
2022-11-29T20:45:42.355Z,2.52
2022-11-29T20:48:19.641Z,2.51
2022-11-29T20:51:00.334Z,2.50
2022-11-29T20:53:36.333Z,2.53
2022-11-29T20:56:08.116Z,2.56
2022-11-29T20:58:37.092Z,2.58
2022-11-29T21:01:07.547Z,2.58
2022-11-29T21:03:38.182Z,2.57
2022-11-29T21:06:08.621Z,2.59
2022-11-29T21:08:37.919Z,2.58
2022-11-29T21:11:09.218Z,2.58
2022-11-29T21:13:39.204Z,2.59
2022-11-29T21:16:12.598Z,2.64
2022-11-29T21:18:43.981Z,2.68
2022-11-29T21:21:25.939Z,2.69
2022-11-29T21:24:06.776Z,2.73
2022-11-29T21:26:42.186Z,2.77
2022-11-29T21:29:19.472Z,2.76
2022-11-29T21:31:50.984Z,2.80
2022-11-29T21:37:32.116Z,2.81
2022-11-29T21:40:00.648Z,2.82
2022-11-29T21:42:29.513Z,2.80
2022-11-29T21:44:57.968Z,2.82
2022-11-29T21:47:26.958Z,2.83
2022-11-29T21:49:57.635Z,2.84
2022-11-29T21:52:27.146Z,2.85
2022-11-29T21:54:56.409Z,2.90
2022-11-29T21:57:25.303Z,2.88
2022-11-29T21:59:54.009Z,2.90
2022-11-29T22:02:22.731Z,2.89
2022-11-29T22:04:51.547Z,2.90
2022-11-29T22:07:23.116Z,2.88
2022-11-29T22:09:55.467Z,2.86
2022-11-29T22:12:34.336Z,2.86
2022-11-29T22:15:04.347Z,2.92
2022-11-29T22:17:34.036Z,2.93
2022-11-29T22:20:03.516Z,2.92
2022-11-29T22:22:39.547Z,2.89
2022-11-29T22:25:09.655Z,2.93
2022-11-29T22:27:39.121Z,2.91
2022-11-29T22:30:12.137Z,2.90
2022-11-29T22:32:41.439Z,2.90
2022-11-29T22:35:10.932Z,2.87
2022-11-29T22:37:41.254Z,2.93
2022-11-29T22:40:10.887Z,2.90
2022-11-29T22:42:41.519Z,2.90
2022-11-29T22:45:11.513Z,2.86
2022-11-29T22:47:40.098Z,2.88
2022-11-29T22:50:10.196Z,2.84
2022-11-29T22:52:40.592Z,2.86
2022-11-29T22:55:10.349Z,2.86
2022-11-29T22:57:39.214Z,2.84
2022-11-29T23:00:10.087Z,2.82
2022-11-29T23:02:39.130Z,2.89
2022-11-29T23:05:08.682Z,2.86
2022-11-29T23:07:37.454Z,2.90
2022-11-29T23:10:09.405Z,2.89
2022-11-29T23:12:37.979Z,2.93
2022-11-29T23:15:08.035Z,2.91
2022-11-29T23:17:37.190Z,2.87
2022-11-29T23:20:07.844Z,2.90
2022-11-29T23:22:39.959Z,2.87
2022-11-29T23:25:10.851Z,2.82
2022-11-29T23:27:39.443Z,2.85
2022-11-29T23:30:10.151Z,2.83
2022-11-29T23:32:39.684Z,2.83
2022-11-29T23:35:09.902Z,2.88
2022-11-29T23:37:41.532Z,2.86
2022-11-29T23:40:13.240Z,2.84
2022-11-29T23:42:46.441Z,2.87
2022-11-29T23:45:15.963Z,2.84
2022-11-29T23:47:44.627Z,2.81
2022-11-29T23:50:19.007Z,2.77
2022-11-29T23:52:56.260Z,2.78
2022-11-29T23:55:31.055Z,2.83
2022-11-29T23:58:03.555Z,2.82
